sensor_id;sensor_type;location;lat;lon;timestamp;pressure;altitude;pressure_sealevel;temperature;humidity
13367;BME280;6752;52.612;13.630;2023-03-01T00:00:48;102515.02;;;-3.38;100.00
13367;BME280;6752;52.612;13.630;2023-03-01T00:05:50;102517.81;;;-3.40;100.00
13367;BME280;6752;52.612;13.630;2023-03-01T00:11:10;102506.32;;;-3.33;100.00
13367;BME280;6752;52.612;13.630;2023-03-01T00:16:15;102496.37;;;-3.30;100.00
13367;BME280;6752;52.612;13.630;2023-03-01T00:21:16;102490.86;;;-3.43;100.00
13367;BME280;6752;52.612;13.630;2023-03-01T00:26:19;102494.90;;;-3.43;100.00
13367;BME280;6752;52.612;13.630;2023-03-01T00:31:22;102499.09;;;-3.55;100.00
13367;BME280;6752;52.612;13.630;2023-03-01T00:36:24;102483.89;;;-3.45;100.00
13367;BME280;6752;52.612;13.630;2023-03-01T00:41:26;102500.00;;;-3.63;100.00
13367;BME280;6752;52.612;13.630;2023-03-01T00:46:31;102497.08;;;-3.59;100.00
13367;BME280;6752;52.612;13.630;2023-03-01T00:51:33;102491.83;;;-3.68;100.00
13367;BME280;6752;52.612;13.630;2023-03-01T00:56:35;102482.29;;;-3.64;100.00
13367;BME280;6752;52.612;13.630;2023-03-01T01:01:38;102474.08;;;-3.68;100.00
13367;BME280;6752;52.612;13.630;2023-03-01T01:06:41;102477.44;;;-3.73;100.00
13367;BME280;6752;52.612;13.630;2023-03-01T01:11:47;102459.66;;;-3.81;100.00
13367;BME280;6752;52.612;13.630;2023-03-01T01:16:44;102456.63;;;-3.66;100.00
13367;BME280;6752;52.612;13.630;2023-03-01T01:21:47;102452.56;;;-3.81;100.00
13367;BME280;6752;52.612;13.630;2023-03-01T01:26:49;102436.15;;;-3.81;100.00
13367;BME280;6752;52.612;13.630;2023-03-01T01:31:51;102442.59;;;-3.93;100.00
13367;BME280;6752;52.612;13.630;2023-03-01T01:36:54;102433.47;;;-3.73;100.00
13367;BME280;6752;52.612;13.630;2023-03-01T01:41:56;102431.81;;;-3.99;100.00
13367;BME280;6752;52.612;13.630;2023-03-01T01:47:02;102424.38;;;-3.85;100.00
13367;BME280;6752;52.612;13.630;2023-03-01T01:52:10;102432.41;;;-3.94;100.00
13367;BME280;6752;52.612;13.630;2023-03-01T01:57:13;102432.63;;;-3.97;100.00
13367;BME280;6752;52.612;13.630;2023-03-01T02:02:14;102433.70;;;-4.01;100.00
13367;BME280;6752;52.612;13.630;2023-03-01T02:07:18;102429.42;;;-4.04;100.00
13367;BME280;6752;52.612;13.630;2023-03-01T02:12:23;102435.95;;;-4.10;100.00
13367;BME280;6752;52.612;13.630;2023-03-01T02:17:21;102433.28;;;-3.69;100.00
13367;BME280;6752;52.612;13.630;2023-03-01T02:22:25;102439.64;;;-4.04;100.00
13367;BME280;6752;52.612;13.630;2023-03-01T02:27:29;102451.67;;;-4.13;100.00
13367;BME280;6752;52.612;13.630;2023-03-01T02:32:28;102455.45;;;-4.17;100.00
13367;BME280;6752;52.612;13.630;2023-03-01T02:37:31;102442.12;;;-4.34;100.00
13367;BME280;6752;52.612;13.630;2023-03-01T02:42:35;102438.13;;;-4.34;100.00
13367;BME280;6752;52.612;13.630;2023-03-01T02:47:36;102432.88;;;-4.43;100.00
13367;BME280;6752;52.612;13.630;2023-03-01T02:52:45;102432.55;;;-4.37;100.00
13367;BME280;6752;52.612;13.630;2023-03-01T02:57:46;102421.03;;;-4.45;100.00
13367;BME280;6752;52.612;13.630;2023-03-01T03:02:49;102422.09;;;-4.57;100.00
13367;BME280;6752;52.612;13.630;2023-03-01T03:07:50;102415.02;;;-4.50;100.00
13367;BME280;6752;52.612;13.630;2023-03-01T03:12:57;102415.02;;;-4.41;100.00
13367;BME280;6752;52.612;13.630;2023-03-01T03:17:55;102405.91;;;-4.45;100.00
13367;BME280;6752;52.612;13.630;2023-03-01T03:22:57;102407.49;;;-4.58;100.00
13367;BME280;6752;52.612;13.630;2023-03-01T03:27:59;102411.54;;;-4.51;100.00
13367;BME280;6752;52.612;13.630;2023-03-01T03:33:00;102399.42;;;-4.48;100.00
13367;BME280;6752;52.612;13.630;2023-03-01T03:38:04;102398.04;;;-4.64;100.00
13367;BME280;6752;52.612;13.630;2023-03-01T03:43:06;102396.18;;;-4.70;100.00
13367;BME280;6752;52.612;13.630;2023-03-01T03:48:08;102383.33;;;-4.54;100.00
13367;BME280;6752;52.612;13.630;2023-03-01T03:53:10;102375.90;;;-4.47;100.00
13367;BME280;6752;52.612;13.630;2023-03-01T03:58:12;102372.53;;;-4.76;100.00
13367;BME280;6752;52.612;13.630;2023-03-01T04:03:15;102375.50;;;-4.74;100.00
13367;BME280;6752;52.612;13.630;2023-03-01T04:08:17;102379.23;;;-4.77;100.00
13367;BME280;6752;52.612;13.630;2023-03-01T04:13:20;102368.98;;;-4.59;100.00
13367;BME280;6752;52.612;13.630;2023-03-01T04:18:22;102372.36;;;-4.72;100.00
13367;BME280;6752;52.612;13.630;2023-03-01T04:23:24;102374.48;;;-4.88;100.00
13367;BME280;6752;52.612;13.630;2023-03-01T04:28:39;102372.95;;;-4.84;100.00
13367;BME280;6752;52.612;13.630;2023-03-01T04:33:48;102368.53;;;-4.84;100.00
13367;BME280;6752;52.612;13.630;2023-03-01T04:38:49;102369.76;;;-4.90;100.00
13367;BME280;6752;52.612;13.630;2023-03-01T04:43:51;102366.44;;;-4.95;100.00
13367;BME280;6752;52.612;13.630;2023-03-01T04:48:53;102372.50;;;-4.92;100.00
13367;BME280;6752;52.612;13.630;2023-03-01T04:53:56;102364.78;;;-4.89;100.00
13367;BME280;6752;52.612;13.630;2023-03-01T04:58:58;102367.56;;;-4.91;100.00
13367;BME280;6752;52.612;13.630;2023-03-01T05:04:01;102361.50;;;-5.02;100.00
13367;BME280;6752;52.612;13.630;2023-03-01T05:09:03;102358.47;;;-5.12;100.00
13367;BME280;6752;52.612;13.630;2023-03-01T05:14:05;102358.78;;;-5.18;100.00
13367;BME280;6752;52.612;13.630;2023-03-01T05:19:07;102362.72;;;-5.26;100.00
13367;BME280;6752;52.612;13.630;2023-03-01T05:24:15;102355.83;;;-5.04;100.00
13367;BME280;6752;52.612;13.630;2023-03-01T05:29:24;102358.12;;;-5.14;100.00
13367;BME280;6752;52.612;13.630;2023-03-01T05:34:25;102354.70;;;-5.25;100.00
13367;BME280;6752;52.612;13.630;2023-03-01T05:39:28;102354.63;;;-5.32;100.00
13367;BME280;6752;52.612;13.630;2023-03-01T05:44:29;102351.70;;;-5.36;100.00
13367;BME280;6752;52.612;13.630;2023-03-01T05:49:32;102356.27;;;-5.30;100.00
13367;BME280;6752;52.612;13.630;2023-03-01T05:54:34;102352.94;;;-5.26;100.00
13367;BME280;6752;52.612;13.630;2023-03-01T05:59:36;102359.75;;;-5.29;100.00
13367;BME280;6752;52.612;13.630;2023-03-01T06:04:38;102354.08;;;-5.30;100.00
13367;BME280;6752;52.612;13.630;2023-03-01T06:09:40;102356.82;;;-5.32;100.00
13367;BME280;6752;52.612;13.630;2023-03-01T06:14:43;102354.64;;;-5.15;100.00
13367;BME280;6752;52.612;13.630;2023-03-01T06:19:46;102360.70;;;-5.12;100.00
13367;BME280;6752;52.612;13.630;2023-03-01T06:24:47;102360.38;;;-5.06;100.00
13367;BME280;6752;52.612;13.630;2023-03-01T06:29:50;102377.58;;;-5.05;100.00
13367;BME280;6752;52.612;13.630;2023-03-01T06:34:52;102376.53;;;-4.93;100.00
13367;BME280;6752;52.612;13.630;2023-03-01T06:39:55;102371.43;;;-4.64;100.00
13367;BME280;6752;52.612;13.630;2023-03-01T06:44:57;102365.84;;;-4.10;100.00
13367;BME280;6752;52.612;13.630;2023-03-01T06:50:00;102373.63;;;-4.14;100.00
13367;BME280;6752;52.612;13.630;2023-03-01T06:55:02;102370.05;;;-3.82;100.00
13367;BME280;6752;52.612;13.630;2023-03-01T07:00:04;102373.84;;;-3.71;100.00
13367;BME280;6752;52.612;13.630;2023-03-01T07:05:07;102373.39;;;-3.40;100.00
13367;BME280;6752;52.612;13.630;2023-03-01T07:10:09;102369.14;;;-2.69;100.00
13367;BME280;6752;52.612;13.630;2023-03-01T07:15:11;102360.59;;;-2.04;100.00
13367;BME280;6752;52.612;13.630;2023-03-01T07:20:14;102370.88;;;-1.50;100.00
13367;BME280;6752;52.612;13.630;2023-03-01T07:25:16;102366.48;;;-0.86;100.00
13367;BME280;6752;52.612;13.630;2023-03-01T07:30:19;102366.65;;;-0.37;100.00
13367;BME280;6752;52.612;13.630;2023-03-01T07:35:21;102361.57;;;0.20;100.00
13367;BME280;6752;52.612;13.630;2023-03-01T07:40:27;102361.55;;;0.92;100.00
13367;BME280;6752;52.612;13.630;2023-03-01T07:45:26;102362.84;;;1.56;100.00
13367;BME280;6752;52.612;13.630;2023-03-01T07:50:28;102346.02;;;2.14;100.00
13367;BME280;6752;52.612;13.630;2023-03-01T07:55:34;102351.80;;;2.64;100.00
13367;BME280;6752;52.612;13.630;2023-03-01T08:00:32;102352.27;;;3.31;100.00
13367;BME280;6752;52.612;13.630;2023-03-01T08:05:35;102351.56;;;3.70;100.00
13367;BME280;6752;52.612;13.630;2023-03-01T08:10:37;102352.79;;;3.92;100.00
13367;BME280;6752;52.612;13.630;2023-03-01T08:15:40;102341.16;;;4.00;100.00
13367;BME280;6752;52.612;13.630;2023-03-01T08:20:42;102329.40;;;4.70;97.87
13367;BME280;6752;52.612;13.630;2023-03-01T08:25:44;102332.90;;;4.81;96.36
13367;BME280;6752;52.612;13.630;2023-03-01T08:30:46;102321.59;;;5.71;92.96
13367;BME280;6752;52.612;13.630;2023-03-01T08:35:49;102314.27;;;5.49;87.42
13367;BME280;6752;52.612;13.630;2023-03-01T08:40:51;102313.17;;;5.55;82.29
13367;BME280;6752;52.612;13.630;2023-03-01T08:45:57;102303.84;;;6.19;80.71
13367;BME280;6752;52.612;13.630;2023-03-01T08:50:56;102295.29;;;5.96;75.34
13367;BME280;6752;52.612;13.630;2023-03-01T08:56:02;102293.48;;;6.50;76.35
13367;BME280;6752;52.612;13.630;2023-03-01T09:01:06;102291.66;;;6.85;76.80
13367;BME280;6752;52.612;13.630;2023-03-01T09:06:06;102291.73;;;7.79;76.45
13367;BME280;6752;52.612;13.630;2023-03-01T09:11:10;102280.19;;;8.02;74.76
13367;BME280;6752;52.612;13.630;2023-03-01T09:16:15;102276.70;;;8.80;71.08
13367;BME280;6752;52.612;13.630;2023-03-01T09:21:16;102283.75;;;8.57;68.11
13367;BME280;6752;52.612;13.630;2023-03-01T09:26:19;102275.88;;;9.27;66.38
13367;BME280;6752;52.612;13.630;2023-03-01T09:31:24;102269.59;;;10.28;65.02
13367;BME280;6752;52.612;13.630;2023-03-01T09:36:26;102273.21;;;10.71;60.98
13367;BME280;6752;52.612;13.630;2023-03-01T09:41:48;102268.45;;;10.87;61.02
13367;BME280;6752;52.612;13.630;2023-03-01T09:46:49;102273.05;;;11.17;60.22
13367;BME280;6752;52.612;13.630;2023-03-01T09:52:03;102269.23;;;10.96;58.83
13367;BME280;6752;52.612;13.630;2023-03-01T09:57:04;102253.74;;;12.82;57.35
13367;BME280;6752;52.612;13.630;2023-03-01T10:02:40;102251.64;;;13.23;54.91
13367;BME280;6752;52.612;13.630;2023-03-01T10:08:05;102249.98;;;13.80;54.08
13367;BME280;6752;52.612;13.630;2023-03-01T10:13:04;102252.13;;;14.55;51.46
13367;BME280;6752;52.612;13.630;2023-03-01T10:18:10;102250.81;;;14.01;50.31
13367;BME280;6752;52.612;13.630;2023-03-01T10:23:09;102244.55;;;15.17;47.76
13367;BME280;6752;52.612;13.630;2023-03-01T10:28:20;102239.94;;;16.11;47.56
13367;BME280;6752;52.612;13.630;2023-03-01T10:33:26;102226.47;;;15.22;44.65
13367;BME280;6752;52.612;13.630;2023-03-01T10:38:30;102236.75;;;15.49;47.63
13367;BME280;6752;52.612;13.630;2023-03-01T10:43:50;102214.66;;;15.83;44.20
13367;BME280;6752;52.612;13.630;2023-03-01T10:54:30;102202.45;;;17.10;43.50
13367;BME280;6752;52.612;13.630;2023-03-01T10:59:35;102188.33;;;15.65;42.81
13367;BME280;6752;52.612;13.630;2023-03-01T11:04:38;102180.36;;;16.07;40.44
13367;BME280;6752;52.612;13.630;2023-03-01T11:09:39;102187.41;;;17.19;41.11
13367;BME280;6752;52.612;13.630;2023-03-01T11:14:51;102182.80;;;17.34;40.12
13367;BME280;6752;52.612;13.630;2023-03-01T11:20:15;102176.25;;;15.85;39.50
13367;BME280;6752;52.612;13.630;2023-03-01T11:25:13;102173.43;;;17.29;40.84
13367;BME280;6752;52.612;13.630;2023-03-01T11:30:25;102164.26;;;18.08;40.97
13367;BME280;6752;52.612;13.630;2023-03-01T11:35:27;102170.20;;;18.29;41.46
13367;BME280;6752;52.612;13.630;2023-03-01T11:46:25;102165.43;;;17.85;40.89
13367;BME280;6752;52.612;13.630;2023-03-01T11:50:40;102158.23;;;16.93;40.07
13367;BME280;6752;52.612;13.630;2023-03-01T12:01:14;102154.63;;;16.92;39.79
13367;BME280;6752;52.612;13.630;2023-03-01T12:22:21;102126.84;;;16.22;41.21
13367;BME280;6752;52.612;13.630;2023-03-01T12:33:43;102124.73;;;16.21;42.79
13367;BME280;6752;52.612;13.630;2023-03-01T12:38:10;102114.92;;;16.44;40.76
13367;BME280;6752;52.612;13.630;2023-03-01T12:53:50;102103.58;;;15.49;42.27
13367;BME280;6752;52.612;13.630;2023-03-01T13:09:46;102085.41;;;15.89;43.20
13367;BME280;6752;52.612;13.630;2023-03-01T13:14:47;102089.38;;;15.96;42.51
13367;BME280;6752;52.612;13.630;2023-03-01T13:19:56;102083.63;;;14.86;42.90
13367;BME280;6752;52.612;13.630;2023-03-01T13:25:02;102074.30;;;14.32;41.33
13367;BME280;6752;52.612;13.630;2023-03-01T13:30:03;102060.47;;;13.43;40.44
13367;BME280;6752;52.612;13.630;2023-03-01T13:45:40;102050.55;;;13.82;42.30
13367;BME280;6752;52.612;13.630;2023-03-01T13:50:46;102053.24;;;13.52;45.41
13367;BME280;6752;52.612;13.630;2023-03-01T13:55:48;102046.16;;;10.32;42.83
13367;BME280;6752;52.612;13.630;2023-03-01T14:01:05;102054.39;;;12.30;47.25
13367;BME280;6752;52.612;13.630;2023-03-01T14:06:12;102040.73;;;11.95;44.92
13367;BME280;6752;52.612;13.630;2023-03-01T14:21:41;102034.17;;;11.89;44.87
13367;BME280;6752;52.612;13.630;2023-03-01T14:26:43;102025.23;;;12.30;46.37
13367;BME280;6752;52.612;13.630;2023-03-01T14:31:46;102017.25;;;12.46;46.86
13367;BME280;6752;52.612;13.630;2023-03-01T14:36:48;102005.52;;;12.35;45.79
13367;BME280;6752;52.612;13.630;2023-03-01T14:41:50;101998.98;;;12.18;46.62
13367;BME280;6752;52.612;13.630;2023-03-01T14:46:55;102004.66;;;12.69;48.13
13367;BME280;6752;52.612;13.630;2023-03-01T14:52:06;102004.94;;;12.01;48.46
13367;BME280;6752;52.612;13.630;2023-03-01T14:57:12;102004.59;;;11.07;48.00
13367;BME280;6752;52.612;13.630;2023-03-01T15:02:10;102008.39;;;11.85;47.97
13367;BME280;6752;52.612;13.630;2023-03-01T15:07:11;102005.92;;;12.32;50.00
13367;BME280;6752;52.612;13.630;2023-03-01T15:17:36;102002.93;;;11.85;50.29
13367;BME280;6752;52.612;13.630;2023-03-01T15:22:35;102008.25;;;11.75;50.49
13367;BME280;6752;52.612;13.630;2023-03-01T15:27:38;102003.63;;;11.61;51.17
13367;BME280;6752;52.612;13.630;2023-03-01T15:32:40;102005.55;;;11.78;50.86
13367;BME280;6752;52.612;13.630;2023-03-01T15:37:46;102005.98;;;11.99;51.09
13367;BME280;6752;52.612;13.630;2023-03-01T15:42:48;102004.99;;;11.61;50.87
13367;BME280;6752;52.612;13.630;2023-03-01T15:47:51;102000.64;;;11.88;50.09
13367;BME280;6752;52.612;13.630;2023-03-01T15:52:52;102000.20;;;11.45;50.61
13367;BME280;6752;52.612;13.630;2023-03-01T15:58:35;101992.66;;;11.47;50.70
13367;BME280;6752;52.612;13.630;2023-03-01T16:03:10;101990.38;;;11.11;51.49
13367;BME280;6752;52.612;13.630;2023-03-01T16:08:11;101984.38;;;10.90;51.39
13367;BME280;6752;52.612;13.630;2023-03-01T16:13:13;101987.56;;;10.24;52.30
13367;BME280;6752;52.612;13.630;2023-03-01T16:18:16;101985.95;;;9.96;52.69
13367;BME280;6752;52.612;13.630;2023-03-01T16:23:18;101996.27;;;9.75;57.16
13367;BME280;6752;52.612;13.630;2023-03-01T16:28:20;101998.42;;;8.95;61.01
13367;BME280;6752;52.612;13.630;2023-03-01T16:33:23;101997.16;;;8.79;62.09
13367;BME280;6752;52.612;13.630;2023-03-01T16:38:25;101995.04;;;8.58;68.93
13367;BME280;6752;52.612;13.630;2023-03-01T16:43:28;102003.95;;;8.15;72.28
13367;BME280;6752;52.612;13.630;2023-03-01T16:48:30;102016.04;;;7.72;74.56
13367;BME280;6752;52.612;13.630;2023-03-01T16:53:33;102015.31;;;7.30;76.79
13367;BME280;6752;52.612;13.630;2023-03-01T16:58:39;102014.48;;;7.00;77.19
13367;BME280;6752;52.612;13.630;2023-03-01T17:03:37;102022.04;;;6.80;76.81
13367;BME280;6752;52.612;13.630;2023-03-01T17:08:40;102024.42;;;6.32;78.17
13367;BME280;6752;52.612;13.630;2023-03-01T17:13:42;102021.30;;;6.06;78.92
13367;BME280;6752;52.612;13.630;2023-03-01T17:18:44;102026.36;;;5.74;78.40
13367;BME280;6752;52.612;13.630;2023-03-01T17:23:47;102030.31;;;5.71;78.37
13367;BME280;6752;52.612;13.630;2023-03-01T17:28:49;102034.43;;;5.43;79.21
13367;BME280;6752;52.612;13.630;2023-03-01T17:33:51;102026.58;;;5.18;80.18
13367;BME280;6752;52.612;13.630;2023-03-01T17:38:54;102032.72;;;5.07;80.47
13367;BME280;6752;52.612;13.630;2023-03-01T17:43:56;102024.19;;;4.65;81.72
13367;BME280;6752;52.612;13.630;2023-03-01T17:48:58;102029.45;;;4.48;84.10
13367;BME280;6752;52.612;13.630;2023-03-01T17:54:01;102036.71;;;4.29;85.57
13367;BME280;6752;52.612;13.630;2023-03-01T17:59:04;102034.92;;;4.06;87.41
13367;BME280;6752;52.612;13.630;2023-03-01T18:04:06;102045.96;;;3.84;88.08
13367;BME280;6752;52.612;13.630;2023-03-01T18:09:08;102046.23;;;2.53;99.50
13367;BME280;6752;52.612;13.630;2023-03-01T18:14:10;102044.88;;;2.53;100.00
13367;BME280;6752;52.612;13.630;2023-03-01T18:19:12;102040.71;;;2.95;97.83
13367;BME280;6752;52.612;13.630;2023-03-01T18:24:15;102034.83;;;3.00;95.51
13367;BME280;6752;52.612;13.630;2023-03-01T18:29:17;102032.98;;;2.86;94.73
13367;BME280;6752;52.612;13.630;2023-03-01T18:34:19;102040.30;;;2.74;94.88
13367;BME280;6752;52.612;13.630;2023-03-01T18:39:22;102038.16;;;2.53;97.42
13367;BME280;6752;52.612;13.630;2023-03-01T18:44:24;102043.59;;;2.48;96.27
13367;BME280;6752;52.612;13.630;2023-03-01T18:49:27;102046.97;;;2.40;96.66
13367;BME280;6752;52.612;13.630;2023-03-01T18:54:29;102052.71;;;2.15;97.39
13367;BME280;6752;52.612;13.630;2023-03-01T18:59:31;102059.31;;;1.96;100.00
13367;BME280;6752;52.612;13.630;2023-03-01T19:04:34;102057.18;;;1.95;100.00
13367;BME280;6752;52.612;13.630;2023-03-01T19:09:37;102056.83;;;1.88;100.00
13367;BME280;6752;52.612;13.630;2023-03-01T19:14:38;102058.38;;;1.59;100.00
13367;BME280;6752;52.612;13.630;2023-03-01T19:19:41;102065.20;;;1.53;100.00
13367;BME280;6752;52.612;13.630;2023-03-01T19:24:43;102057.56;;;1.21;100.00
13367;BME280;6752;52.612;13.630;2023-03-01T19:29:46;102061.24;;;1.31;100.00
13367;BME280;6752;52.612;13.630;2023-03-01T19:34:48;102070.55;;;1.15;100.00
13367;BME280;6752;52.612;13.630;2023-03-01T19:39:50;102067.80;;;1.16;100.00
13367;BME280;6752;52.612;13.630;2023-03-01T19:44:53;102070.87;;;1.12;100.00
13367;BME280;6752;52.612;13.630;2023-03-01T19:49:55;102061.53;;;0.95;100.00
13367;BME280;6752;52.612;13.630;2023-03-01T19:54:58;102057.63;;;0.82;100.00
13367;BME280;6752;52.612;13.630;2023-03-01T20:00:00;102059.84;;;0.77;100.00
13367;BME280;6752;52.612;13.630;2023-03-01T20:05:03;102062.39;;;0.67;100.00
13367;BME280;6752;52.612;13.630;2023-03-01T20:10:05;102056.91;;;0.63;100.00
13367;BME280;6752;52.612;13.630;2023-03-01T20:15:07;102067.66;;;0.52;100.00
13367;BME280;6752;52.612;13.630;2023-03-01T20:20:10;102063.30;;;0.45;100.00
13367;BME280;6752;52.612;13.630;2023-03-01T20:25:12;102067.45;;;0.43;100.00
13367;BME280;6752;52.612;13.630;2023-03-01T20:30:15;102063.06;;;0.37;100.00
13367;BME280;6752;52.612;13.630;2023-03-01T20:35:17;102064.44;;;0.19;100.00
13367;BME280;6752;52.612;13.630;2023-03-01T20:40:19;102065.05;;;0.00;100.00
13367;BME280;6752;52.612;13.630;2023-03-01T20:45:22;102063.95;;;0.03;100.00
13367;BME280;6752;52.612;13.630;2023-03-01T20:50:24;102063.06;;;-0.03;100.00
13367;BME280;6752;52.612;13.630;2023-03-01T20:55:26;102061.28;;;-0.09;100.00
13367;BME280;6752;52.612;13.630;2023-03-01T21:00:29;102061.81;;;-0.22;100.00
13367;BME280;6752;52.612;13.630;2023-03-01T21:05:31;102061.95;;;-0.29;100.00
13367;BME280;6752;52.612;13.630;2023-03-01T21:10:34;102060.24;;;-0.31;100.00
13367;BME280;6752;52.612;13.630;2023-03-01T21:15:36;102059.38;;;-0.37;100.00
13367;BME280;6752;52.612;13.630;2023-03-01T21:20:38;102064.48;;;-0.39;100.00
13367;BME280;6752;52.612;13.630;2023-03-01T21:25:41;102052.49;;;-0.40;100.00
13367;BME280;6752;52.612;13.630;2023-03-01T21:30:43;102061.31;;;-0.44;100.00
13367;BME280;6752;52.612;13.630;2023-03-01T21:35:45;102061.55;;;-0.54;100.00
13367;BME280;6752;52.612;13.630;2023-03-01T21:40:47;102059.97;;;-0.56;100.00
13367;BME280;6752;52.612;13.630;2023-03-01T21:45:49;102053.55;;;-0.66;100.00
13367;BME280;6752;52.612;13.630;2023-03-01T21:50:59;102052.20;;;-0.72;100.00
13367;BME280;6752;52.612;13.630;2023-03-01T21:55:57;102043.96;;;-0.81;100.00
13367;BME280;6752;52.612;13.630;2023-03-01T22:01:09;102048.52;;;-0.82;100.00
13367;BME280;6752;52.612;13.630;2023-03-01T22:06:17;102040.89;;;-0.87;100.00
13367;BME280;6752;52.612;13.630;2023-03-01T22:11:19;102042.89;;;-0.90;100.00
13367;BME280;6752;52.612;13.630;2023-03-01T22:16:23;102040.09;;;-0.95;100.00
13367;BME280;6752;52.612;13.630;2023-03-01T22:21:24;102041.78;;;-0.93;100.00
13367;BME280;6752;52.612;13.630;2023-03-01T22:26:30;102042.64;;;-0.99;100.00
13367;BME280;6752;52.612;13.630;2023-03-01T22:31:31;102047.48;;;-1.04;100.00
13367;BME280;6752;52.612;13.630;2023-03-01T22:36:33;102030.72;;;-1.13;100.00
13367;BME280;6752;52.612;13.630;2023-03-01T22:41:39;102035.92;;;-1.17;100.00
13367;BME280;6752;52.612;13.630;2023-03-01T22:46:40;102030.39;;;-1.21;100.00
13367;BME280;6752;52.612;13.630;2023-03-01T22:51:43;102032.45;;;-1.24;100.00
13367;BME280;6752;52.612;13.630;2023-03-01T22:56:45;102024.70;;;-1.28;100.00
13367;BME280;6752;52.612;13.630;2023-03-01T23:01:48;102030.39;;;-1.33;100.00
13367;BME280;6752;52.612;13.630;2023-03-01T23:06:50;102029.34;;;-1.36;100.00
13367;BME280;6752;52.612;13.630;2023-03-01T23:11:53;102031.70;;;-1.38;100.00
13367;BME280;6752;52.612;13.630;2023-03-01T23:16:55;102023.79;;;-1.40;100.00
13367;BME280;6752;52.612;13.630;2023-03-01T23:21:57;102018.97;;;-1.47;100.00
13367;BME280;6752;52.612;13.630;2023-03-01T23:27:00;102020.53;;;-1.50;100.00
13367;BME280;6752;52.612;13.630;2023-03-01T23:32:02;102012.19;;;-1.52;100.00
13367;BME280;6752;52.612;13.630;2023-03-01T23:37:04;102009.03;;;-1.51;100.00
13367;BME280;6752;52.612;13.630;2023-03-01T23:42:06;102001.55;;;-1.53;100.00
13367;BME280;6752;52.612;13.630;2023-03-01T23:47:08;101995.97;;;-1.62;100.00
13367;BME280;6752;52.612;13.630;2023-03-01T23:52:11;102001.58;;;-1.72;100.00
13367;BME280;6752;52.612;13.630;2023-03-01T23:57:13;101990.06;;;-1.67;100.00
